• Join FlightAware (Why Join?)
  • Login
  • US Flag 
03:21PM EDT


 

Airport Tracker/Info


-or-


 

Live Flight TrackerFlight Track Log ✈ N987TS ✈ 10-May-2013 ✈ KLGB - KCRQ

Flight Track Log - Related Links

Times and Time Zones

All times are in EDT time to prevent confusion due to time zone crossing. See the N987TS flight status page for this flight to view local times or setup timezone preferences in your user account.

Time Position Orientation Groundspeed Altitude Reporting Facility
EDT Latitude Longitude Course Direction KTS MPH feet Rate Location/Type
05:03PM 33.6333 -117.7667 133° Southeast 146 168 5,000  Level Southern California TRACON
05:04PM 33.6000 -117.7500 157° South 147 169 5,000  Level Southern California TRACON
05:05PM 33.5500 -117.7500 180° South 144 166 5,000  Level Southern California TRACON
05:06PM 33.5167 -117.7167 140° Southeast 142 163 5,000  Level Southern California TRACON
05:07PM 33.4833 -117.7000 157° South 143 165 5,000  Level Southern California TRACON
05:08PM 33.4500 -117.6667 140° Southeast 142 163 5,000  Level Southern California TRACON
05:09PM 33.4693 -117.7086 133° Southeast  Level Estimated
05:09PM 33.4333 -117.6333 121° Southeast 144 166 5,000  Level Southern California TRACON
05:10PM 33.4000 -117.6000 140° Southeast 141 162 5,000  Level Southern California TRACON
05:11PM 33.3667 -117.5667 140° Southeast 144 166 5,000  Level Southern California TRACON
05:12PM 33.3500 -117.5333 121° Southeast 143 165 5,000  Level Southern California TRACON
05:14PM 33.3167 -117.5000 140° Southeast 145 167 5,000  Level Southern California TRACON
05:15PM 33.2833 -117.4667 140° Southeast 146 168 5,000  Level Southern California TRACON
05:16PM 33.2500 -117.4333 140° Southeast 145 167 5,000  Level Southern California TRACON
05:17PM 33.2333 -117.3833 112° Southeast 147 169 5,000  Level Southern California TRACON
05:18PM 33.2000 -117.3667 157° South 127 146 5,000  Level Southern California TRACON
05:18PM 33.1667 -117.3500 157° South 122 140 5,000  Level Southern California TRACON
05:19PM 33.1667 -117.3333 90° East 127 146 5,000  Level Southern California TRACON
05:20PM 33.1833 -117.3000 59° Northeast 129 148 5,000  Level Southern California TRACON
05:21PM 33.2000 -117.2500 68° East 135 155 5,000  Level Southern California TRACON
05:22PM 33.2167 -117.2167 59° Northeast 133 153 5,000 -180 Level Southern California TRACON
05:23PM 33.2333 -117.1833 59° Northeast 146 168 4,700 -540 Descending Southern California TRACON
05:24PM 33.2500 -117.1167 73° East 163 188 4,000 -360 Descending Southern California TRACON
05:25PM 33.2333 -117.0833 121° Southeast 142 163 4,000 -120 Level Southern California TRACON
05:26PM 33.2167 -117.0500 121° Southeast 145 167 3,800 -240 Descending Southern California TRACON
05:27PM 33.1667 -117.0500 180° South 128 147 3,600 -120 Descending Southern California TRACON
05:29PM 33.1500 -117.0667 220° Southwest 102 117 3,600 -60 Level Southern California TRACON
05:30PM 33.1500 -117.0833 270° West 90 104 3,500 -300 Descending Southern California TRACON
05:31PM 33.1500 -117.1167 270° West 103 119 3,000 -600 Descending Southern California TRACON
05:32PM 33.1500 -117.1500 270° West 109 125 2,400 -600 Descending Southern California TRACON
05:33PM 33.1500 -117.2000 270° West 108 124 1,800 -660 Descending Southern California TRACON
05:34PM 33.1333 -117.2333 239° Southwest 100 115 1,100 -600 Descending Southern California TRACON
05:35PM 33.1333 -117.2500 270° West 76 87 600 -300 Descending Southern California TRACON
05:36PM 33.1167 -117.2667 220° Southwest 65 75 500 -120 Descending Southern California TRACON
05:38PM 33.1283 -117.2801 316° Northwest  Level Estimated
05:45PM 33.1283 -117.2801 270° West  Level Estimated
05:46PM 33.1283 -117.2801 270° West  Level Estimated
05:47PM 33.1283 -117.2801 270° West  Level Estimated
05:48PM 33.1283 -117.2801 270° West  Level Estimated